Time;durP1;ratioP1;P1;durP2;ratioP2;P2;SDS_P1;SDS_P2;PMS_P1;PMS_P2;Temp;Humidity;BMP_temperature;BMP_pressure;BME280_temperature;BME280_humidity;BME280_pressure;Samples;Min_cycle;Max_cycle;Signal;HPM_P1;HPM_P2
2022/05/05 00:02:05;;;;;;;7.63;5.40;;;;;;;;;;5052951;28;20045;-40
2022/05/05 00:04:31;;;;;;;8.25;5.75;;;;;;;;;;5052628;28;20431;-40
2022/05/05 00:06:56;;;;;;;7.95;5.55;;;;;;;;;;5052579;28;20104;-41
2022/05/05 00:09:21;;;;;;;9.40;6.32;;;;;;;;;;5052475;28;20049;-41
2022/05/05 00:14:31;;;;;;;7.97;5.57;;;;;;;;;;5052252;28;20083;-41
2022/05/05 00:17:01;;;;;;;8.68;5.72;;;;;;;;;;5052491;28;20025;-41
2022/05/05 00:19:28;;;;;;;9.85;6.63;;;;;;;;;;5052380;28;20025;-40
2022/05/05 00:21:53;;;;;;;8.40;5.72;;;;;;;;;;5052238;28;20029;-41
2022/05/05 00:24:20;;;;;;;10.18;6.07;;;;;;;;;;5052256;28;20021;-42
2022/05/05 00:26:46;;;;;;;7.00;5.57;;;;;;;;;;5052302;28;20535;-39
2022/05/05 00:29:12;;;;;;;8.00;5.45;;;;;;;;;;5052441;28;20029;-39
2022/05/05 00:31:37;;;;;;;9.13;5.07;;;;;;;;;;5052466;28;20079;-39
2022/05/05 00:34:03;;;;;;;8.48;5.70;;;;;;;;;;5052118;28;20044;-39
2022/05/05 00:36:29;;;;;;;8.43;6.10;;;;;;;;;;5052541;28;20464;-39
2022/05/05 00:38:54;;;;;;;6.53;5.57;;;;;;;;;;5052511;28;20039;-40
2022/05/05 00:41:20;;;;;;;8.85;5.40;;;;;;;;;;5052521;28;20422;-39
2022/05/05 00:43:45;;;;;;;9.25;6.18;;;;;;;;;;5052194;28;20523;-39
2022/05/05 00:46:11;;;;;;;7.18;5.95;;;;;;;;;;5052094;28;20103;-39
2022/05/05 00:48:36;;;;;;;8.35;5.95;;;;;;;;;;5052092;28;20029;-40
2022/05/05 00:51:02;;;;;;;7.07;5.53;;;;;;;;;;5051796;28;20029;-39
2022/05/05 00:53:27;;;;;;;8.02;5.53;;;;;;;;;;5051885;28;20045;-39
2022/05/05 00:56:02;;;;;;;8.82;5.93;;;;;;;;;;5051787;28;20045;-41
2022/05/05 00:58:29;;;;;;;7.95;6.22;;;;;;;;;;5052164;28;20033;-42
2022/05/05 01:00:55;;;;;;;8.57;6.25;;;;;;;;;;5052293;28;20110;-44
2022/05/05 01:03:23;;;;;;;8.18;6.35;;;;;;;;;;5051823;28;20021;-42
2022/05/05 01:05:48;;;;;;;11.45;6.22;;;;;;;;;;5051893;28;20048;-42
2022/05/05 01:08:13;;;;;;;9.07;6.18;;;;;;;;;;5052215;28;20068;-40
2022/05/05 01:10:39;;;;;;;7.82;6.18;;;;;;;;;;5051993;28;20056;-40
2022/05/05 01:13:04;;;;;;;8.68;5.97;;;;;;;;;;5051955;28;20380;-40
2022/05/05 01:15:30;;;;;;;9.10;6.25;;;;;;;;;;5051904;28;20036;-40
2022/05/05 01:17:56;;;;;;;8.35;6.03;;;;;;;;;;5051918;28;20472;-40
2022/05/05 01:20:22;;;;;;;8.95;6.47;;;;;;;;;;5051846;28;20017;-40
2022/05/05 01:22:50;;;;;;;17.40;7.13;;;;;;;;;;5051854;28;20394;-39
2022/05/05 01:28:12;;;;;;;9.30;6.88;;;;;;;;;;5052209;28;20040;-39
2022/05/05 01:30:48;;;;;;;9.65;6.85;;;;;;;;;;5051694;28;20033;-39
2022/05/05 01:33:15;;;;;;;8.82;6.05;;;;;;;;;;5051990;28;20043;-39
2022/05/05 01:35:43;;;;;;;9.35;6.15;;;;;;;;;;5051643;28;20020;-40
2022/05/05 01:38:10;;;;;;;8.85;6.05;;;;;;;;;;5051717;28;20032;-40
2022/05/05 01:40:36;;;;;;;7.03;5.30;;;;;;;;;;5051697;28;20032;-39
2022/05/05 01:43:03;;;;;;;10.10;6.45;;;;;;;;;;5051698;28;20032;-40
2022/05/05 01:45:29;;;;;;;6.25;4.90;;;;;;;;;;5055102;28;20028;-42
2022/05/05 01:47:55;;;;;;;7.75;5.93;;;;;;;;;;5055297;28;20028;-40
2022/05/05 01:50:20;;;;;;;11.57;7.32;;;;;;;;;;5055152;28;20033;-40
2022/05/05 01:52:47;;;;;;;12.65;7.13;;;;;;;;;;5055457;28;20499;-42
2022/05/05 01:55:12;;;;;;;8.13;5.90;;;;;;;;;;5054827;28;20501;-42
2022/05/05 01:57:38;;;;;;;8.70;6.72;;;;;;;;;;5054772;28;20031;-42
2022/05/05 02:00:04;;;;;;;10.25;6.90;;;;;;;;;;5055029;28;20025;-40
2022/05/05 02:02:30;;;;;;;9.85;7.45;;;;;;;;;;5055151;28;20025;-41
2022/05/05 02:04:55;;;;;;;13.00;7.25;;;;;;;;;;5055029;28;20025;-40
2022/05/05 02:07:20;;;;;;;10.18;6.68;;;;;;;;;;5054846;28;20366;-40
2022/05/05 02:09:46;;;;;;;9.50;6.55;;;;;;;;;;5055039;28;20372;-41
2022/05/05 02:12:11;;;;;;;9.57;6.88;;;;;;;;;;5054893;28;20029;-40
2022/05/05 02:14:37;;;;;;;9.93;6.70;;;;;;;;;;5054372;28;20119;-40
2022/05/05 02:17:02;;;;;;;8.90;6.57;;;;;;;;;;5054525;28;20028;-39
2022/05/05 02:19:28;;;;;;;11.75;6.72;;;;;;;;;;5054735;28;20017;-39
2022/05/05 02:21:55;;;;;;;6.32;5.32;;;;;;;;;;5054346;28;20031;-38
2022/05/05 02:24:20;;;;;;;8.60;5.93;;;;;;;;;;5054757;28;20025;-39
2022/05/05 02:26:46;;;;;;;8.10;5.75;;;;;;;;;;5054722;28;20532;-39
2022/05/05 02:29:11;;;;;;;9.30;5.75;;;;;;;;;;5054464;28;20065;-39
2022/05/05 02:31:37;;;;;;;7.95;5.72;;;;;;;;;;5054418;28;20021;-39
2022/05/05 02:34:08;;;;;;;8.10;6.50;;;;;;;;;;5054731;28;20028;-39
2022/05/05 02:39:22;;;;;;;9.95;7.18;;;;;;;;;;5054109;28;20480;-39
2022/05/05 02:41:48;;;;;;;10.55;7.25;;;;;;;;;;5054417;28;20154;-39
2022/05/05 02:44:13;;;;;;;10.55;7.25;;;;;;;;;;5053903;28;20083;-41
2022/05/05 02:46:39;;;;;;;17.77;7.50;;;;;;;;;;5054201;28;20036;-39
2022/05/05 02:49:04;;;;;;;10.73;7.70;;;;;;;;;;5054173;28;20021;-39
2022/05/05 02:51:30;;;;;;;9.57;6.80;;;;;;;;;;5054363;28;20469;-39
2022/05/05 02:56:39;;;;;;;11.15;7.57;;;;;;;;;;5053228;28;20044;-39
2022/05/05 02:59:05;;;;;;;13.00;7.47;;;;;;;;;;5053944;28;20025;-40
2022/05/05 03:01:30;;;;;;;10.63;7.63;;;;;;;;;;5054108;28;20036;-40
2022/05/05 03:03:55;;;;;;;10.57;7.22;;;;;;;;;;5054130;28;20033;-40
2022/05/05 03:06:21;;;;;;;8.45;6.68;;;;;;;;;;5053953;28;20031;-40
2022/05/05 03:08:46;;;;;;;13.45;7.07;;;;;;;;;;5053803;28;20465;-39
2022/05/05 03:11:12;;;;;;;9.18;7.13;;;;;;;;;;5053942;28;20029;-38
2022/05/05 03:13:37;;;;;;;10.38;6.72;;;;;;;;;;5053791;28;20032;-39
2022/05/05 03:16:04;;;;;;;12.85;7.68;;;;;;;;;;5052412;28;20066;-39
2022/05/05 03:18:29;;;;;;;10.00;7.03;;;;;;;;;;5053766;28;20374;-39
2022/05/05 03:20:55;;;;;;;12.45;7.45;;;;;;;;;;5053468;28;20074;-39
2022/05/05 03:23:20;;;;;;;11.98;7.75;;;;;;;;;;5053405;28;20036;-39
2022/05/05 03:25:46;;;;;;;10.95;7.43;;;;;;;;;;5053694;28;20071;-39
2022/05/05 03:28:11;;;;;;;10.23;6.50;;;;;;;;;;5053346;28;20041;-41
2022/05/05 03:30:37;;;;;;;12.70;6.38;;;;;;;;;;5053148;28;20044;-39
2022/05/05 03:33:03;;;;;;;7.65;5.57;;;;;;;;;;5053017;28;20032;-39
2022/05/05 03:35:28;;;;;;;15.75;6.70;;;;;;;;;;5053167;28;20040;-39
2022/05/05 03:37:54;;;;;;;9.10;6.90;;;;;;;;;;5052983;28;20024;-39
2022/05/05 03:40:19;;;;;;;10.30;6.93;;;;;;;;;;5053162;28;20025;-40
2022/05/05 03:42:45;;;;;;;9.07;6.97;;;;;;;;;;5053172;28;20469;-40
2022/05/05 03:45:10;;;;;;;10.57;7.70;;;;;;;;;;5052416;28;20597;-40
2022/05/05 03:47:37;;;;;;;15.35;7.30;;;;;;;;;;5052546;28;20025;-39
2022/05/05 03:50:03;;;;;;;10.10;7.07;;;;;;;;;;5052880;28;20443;-39
2022/05/05 03:52:28;;;;;;;9.38;7.13;;;;;;;;;;5053162;28;20021;-39
2022/05/05 03:54:54;;;;;;;10.35;7.03;;;;;;;;;;5052418;28;20385;-39
2022/05/05 03:57:19;;;;;;;8.82;6.63;;;;;;;;;;5052215;28;20310;-39
2022/05/05 03:59:44;;;;;;;9.98;6.90;;;;;;;;;;5052807;28;20021;-40
2022/05/05 04:02:10;;;;;;;10.50;7.60;;;;;;;;;;5052900;28;20029;-39
2022/05/05 04:04:35;;;;;;;12.43;6.90;;;;;;;;;;5052954;28;20028;-40
2022/05/05 04:07:01;;;;;;;10.65;7.57;;;;;;;;;;5052123;28;20025;-39
2022/05/05 04:09:26;;;;;;;10.70;7.47;;;;;;;;;;5052572;28;20032;-39
2022/05/05 04:11:52;;;;;;;12.52;8.27;;;;;;;;;;5052561;28;20425;-39
2022/05/05 04:14:17;;;;;;;10.02;7.43;;;;;;;;;;5052228;28;20158;-39
2022/05/05 04:16:43;;;;;;;11.52;8.32;;;;;;;;;;5052864;28;20032;-39
2022/05/05 04:19:08;;;;;;;11.57;7.72;;;;;;;;;;5052806;28;20032;-39
2022/05/05 04:21:34;;;;;;;13.35;8.10;;;;;;;;;;5052561;28;20025;-39
2022/05/05 04:24:00;;;;;;;12.00;8.35;;;;;;;;;;5052438;28;20021;-40
2022/05/05 04:26:27;;;;;;;10.48;7.45;;;;;;;;;;5034572;28;20025;-39
2022/05/05 04:28:56;;;;;;;9.93;6.88;;;;;;;;;;5052672;28;20029;-41
2022/05/05 04:31:26;;;;;;;9.77;6.75;;;;;;;;;;5052503;28;20416;-41
2022/05/05 04:33:51;;;;;;;11.60;7.13;;;;;;;;;;5052548;28;20043;-40
2022/05/05 04:36:17;;;;;;;12.63;6.70;;;;;;;;;;5052320;28;20104;-40
2022/05/05 04:38:43;;;;;;;6.95;5.50;;;;;;;;;;5052489;28;20063;-39
2022/05/05 04:41:09;;;;;;;5.07;4.25;;;;;;;;;;5052398;28;20107;-39
2022/05/05 04:43:34;;;;;;;6.65;5.22;;;;;;;;;;5052477;28;20465;-41
2022/05/05 04:46:00;;;;;;;11.15;5.20;;;;;;;;;;5052247;28;20456;-39
2022/05/05 04:48:25;;;;;;;5.03;3.92;;;;;;;;;;5052001;28;20522;-40
2022/05/05 04:50:51;;;;;;;5.20;4.70;;;;;;;;;;5052244;28;20455;-40
2022/05/05 04:53:16;;;;;;;5.30;3.92;;;;;;;;;;5052278;28;20021;-39
2022/05/05 04:55:41;;;;;;;4.55;4.15;;;;;;;;;;5051563;28;20045;-39
2022/05/05 04:58:07;;;;;;;7.25;5.78;;;;;;;;;;5051879;28;20024;-39
2022/05/05 05:00:33;;;;;;;8.73;6.32;;;;;;;;;;5051976;28;20388;-39
2022/05/05 05:02:58;;;;;;;7.57;5.47;;;;;;;;;;5052019;28;20017;-40
2022/05/05 05:05:24;;;;;;;3.47;3.15;;;;;;;;;;5051883;28;20035;-39
2022/05/05 05:07:49;;;;;;;5.97;4.97;;;;;;;;;;5034168;28;20036;-41
2022/05/05 05:10:15;;;;;;;8.23;6.60;;;;;;;;;;5051574;28;20033;-40
2022/05/05 05:12:40;;;;;;;7.28;4.82;;;;;;;;;;5051761;28;20033;-40
2022/05/05 05:15:07;;;;;;;12.70;8.20;;;;;;;;;;5051721;28;20481;-40
2022/05/05 05:17:33;;;;;;;13.55;10.00;;;;;;;;;;5051683;28;20036;-39
2022/05/05 05:19:58;;;;;;;11.23;7.65;;;;;;;;;;5055079;28;20103;-40
2022/05/05 05:22:24;;;;;;;12.68;9.98;;;;;;;;;;5055776;28;20032;-40
2022/05/05 05:24:49;;;;;;;9.95;5.75;;;;;;;;;;5055806;28;20025;-38
2022/05/05 05:27:14;;;;;;;12.25;8.45;;;;;;;;;;5055811;28;20021;-36
2022/05/05 05:29:40;;;;;;;19.30;9.70;;;;;;;;;;5037624;28;20388;-37
2022/05/05 05:32:06;;;;;;;10.77;7.80;;;;;;;;;;5055545;28;20025;-37
2022/05/05 05:34:32;;;;;;;4.38;3.88;;;;;;;;;;5055280;28;20398;-36
2022/05/05 05:36:57;;;;;;;7.78;6.82;;;;;;;;;;5055004;28;20056;-37
2022/05/05 05:39:23;;;;;;;8.88;7.03;;;;;;;;;;5054949;28;20112;-37
2022/05/05 05:41:48;;;;;;;6.00;4.70;;;;;;;;;;5054740;28;20500;-39
2022/05/05 05:44:14;;;;;;;8.00;5.70;;;;;;;;;;5055217;28;20465;-37
2022/05/05 05:46:39;;;;;;;10.65;5.70;;;;;;;;;;5055198;28;20520;-38
2022/05/05 05:49:09;;;;;;;8.82;5.88;;;;;;;;;;5055192;28;20021;-37
2022/05/05 05:51:35;;;;;;;7.22;5.35;;;;;;;;;;5055322;28;20017;-38
2022/05/05 05:54:00;;;;;;;8.27;6.78;;;;;;;;;;5055421;28;20090;-37
2022/05/05 05:56:26;;;;;;;6.30;4.72;;;;;;;;;;5054877;28;20041;-37
2022/05/05 05:58:52;;;;;;;5.45;3.92;;;;;;;;;;5055300;28;20107;-37
2022/05/05 06:01:17;;;;;;;4.85;4.22;;;;;;;;;;5055113;28;20113;-37
2022/05/05 06:03:56;;;;;;;6.05;4.85;;;;;;;;;;5054874;28;20028;-37
2022/05/05 06:06:22;;;;;;;5.22;4.53;;;;;;;;;;5055061;28;20060;-37
2022/05/05 06:08:49;;;;;;;9.98;8.13;;;;;;;;;;5054832;28;20021;-37
2022/05/05 06:11:17;;;;;;;6.32;5.47;;;;;;;;;;5054474;28;20380;-37
2022/05/05 06:13:43;;;;;;;5.85;4.15;;;;;;;;;;5054717;28;20027;-38
2022/05/05 06:16:10;;;;;;;6.63;5.32;;;;;;;;;;5054683;28;20104;-37
2022/05/05 06:18:38;;;;;;;6.50;5.57;;;;;;;;;;5054970;28;20452;-37
2022/05/05 06:21:04;;;;;;;11.80;7.28;;;;;;;;;;5054759;28;20388;-37
2022/05/05 06:23:30;;;;;;;4.70;3.25;;;;;;;;;;5054208;28;20036;-38
2022/05/05 06:25:56;;;;;;;8.05;5.03;;;;;;;;;;5052461;28;20033;-37
2022/05/05 06:28:21;;;;;;;5.53;4.07;;;;;;;;;;5053015;28;20033;-38
2022/05/05 06:30:46;;;;;;;4.63;3.72;;;;;;;;;;5054166;28;20071;-36
2022/05/05 06:33:12;;;;;;;4.22;3.60;;;;;;;;;;5054400;28;20025;-36
2022/05/05 06:35:37;;;;;;;6.53;5.15;;;;;;;;;;5054455;28;20461;-37
2022/05/05 06:38:03;;;;;;;6.45;5.65;;;;;;;;;;5054225;28;20021;-38
2022/05/05 06:40:29;;;;;;;7.43;3.30;;;;;;;;;;5054467;28;20139;-39
2022/05/05 06:42:54;;;;;;;4.82;3.15;;;;;;;;;;5054003;28;20373;-36
2022/05/05 06:45:20;;;;;;;3.40;3.10;;;;;;;;;;5053959;28;20032;-39
2022/05/05 06:47:45;;;;;;;5.20;3.75;;;;;;;;;;5053720;28;20017;-41
2022/05/05 06:50:11;;;;;;;4.78;4.20;;;;;;;;;;5053691;28;20112;-37
2022/05/05 06:52:37;;;;;;;8.65;5.20;;;;;;;;;;5036230;28;20079;-38
2022/05/05 06:55:04;;;;;;;5.30;3.70;;;;;;;;;;5053981;28;20124;-37
2022/05/05 06:57:30;;;;;;;5.15;3.25;;;;;;;;;;5053541;28;20040;-37
2022/05/05 06:59:55;;;;;;;3.90;3.35;;;;;;;;;;5053798;28;20033;-38
2022/05/05 07:02:22;;;;;;;4.82;3.00;;;;;;;;;;5053575;28;20025;-37
2022/05/05 07:07:31;;;;;;;5.38;3.55;;;;;;;;;;5053869;28;20519;-38
2022/05/05 07:13:01;;;;;;;5.53;4.43;;;;;;;;;;5031174;28;20037;-38
2022/05/05 07:15:26;;;;;;;4.55;3.90;;;;;;;;;;5030115;28;20083;-38
2022/05/05 07:17:52;;;;;;;4.85;4.22;;;;;;;;;;5040511;28;20037;-37
2022/05/05 07:20:17;;;;;;;6.65;3.75;;;;;;;;;;5053578;28;20021;-37
2022/05/05 07:22:43;;;;;;;2.90;2.63;;;;;;;;;;5053510;28;20457;-38
2022/05/05 07:25:09;;;;;;;5.70;3.33;;;;;;;;;;5053652;28;20021;-37
2022/05/05 07:27:35;;;;;;;13.35;4.68;;;;;;;;;;5053442;28;20032;-38
2022/05/05 07:30:00;;;;;;;3.53;2.60;;;;;;;;;;5052831;28;20396;-38
2022/05/05 07:32:26;;;;;;;4.20;3.78;;;;;;;;;;5052581;28;20392;-38
2022/05/05 07:34:51;;;;;;;5.72;2.75;;;;;;;;;;5046407;28;20029;-39
2022/05/05 07:37:17;;;;;;;3.53;3.22;;;;;;;;;;5052233;28;20033;-38
2022/05/05 07:39:42;;;;;;;6.35;3.65;;;;;;;;;;5053273;28;20237;-38
2022/05/05 07:42:08;;;;;;;4.60;4.05;;;;;;;;;;5052594;28;20032;-38
2022/05/05 07:44:34;;;;;;;5.20;3.30;;;;;;;;;;5053143;28;20021;-39
2022/05/05 07:46:59;;;;;;;4.75;3.20;;;;;;;;;;5052521;28;20017;-39
2022/05/05 07:49:25;;;;;;;3.08;2.80;;;;;;;;;;5052200;28;20079;-39
2022/05/05 07:51:51;;;;;;;4.55;4.07;;;;;;;;;;5050975;28;20029;-39
2022/05/05 07:57:04;;;;;;;3.88;3.25;;;;;;;;;;5051187;28;20198;-38
2022/05/05 07:59:30;;;;;;;4.95;3.15;;;;;;;;;;5033446;28;20036;-38
2022/05/05 08:01:56;;;;;;;4.43;3.55;;;;;;;;;;5051370;28;20021;-39
2022/05/05 08:04:22;;;;;;;10.07;4.22;;;;;;;;;;5051008;28;20032;-38
2022/05/05 08:06:47;;;;;;;4.57;3.00;;;;;;;;;;5050004;28;20029;-38
2022/05/05 08:09:13;;;;;;;3.28;2.97;;;;;;;;;;5049421;28;20059;-38
2022/05/05 08:11:38;;;;;;;5.40;2.80;;;;;;;;;;5050242;28;20461;-38
2022/05/05 08:14:05;;;;;;;3.33;3.03;;;;;;;;;;5050940;28;20047;-38
2022/05/05 08:16:31;;;;;;;3.00;2.42;;;;;;;;;;5050784;28;20699;-39
2022/05/05 08:18:56;;;;;;;3.67;2.15;;;;;;;;;;5050752;28;20111;-38
2022/05/05 08:21:22;;;;;;;3.42;2.90;;;;;;;;;;5051226;28;20056;-38
2022/05/05 08:23:47;;;;;;;2.40;2.20;;;;;;;;;;5051087;28;20079;-38
2022/05/05 08:28:57;;;;;;;3.75;2.75;;;;;;;;;;5050908;28;20083;-38
2022/05/05 08:31:23;;;;;;;3.72;3.22;;;;;;;;;;5050574;28;20396;-38
2022/05/05 08:33:49;;;;;;;3.92;3.58;;;;;;;;;;5050945;28;20025;-38
2022/05/05 08:36:14;;;;;;;3.38;3.08;;;;;;;;;;5032326;28;20068;-38
2022/05/05 08:38:40;;;;;;;5.40;3.05;;;;;;;;;;5050906;28;20052;-39
2022/05/05 08:41:12;;;;;;;6.03;2.33;;;;;;;;;;5050441;28;20032;-38
2022/05/05 08:43:37;;;;;;;2.90;2.65;;;;;;;;;;5050765;28;20105;-39
2022/05/05 08:46:03;;;;;;;4.70;3.05;;;;;;;;;;5050615;28;20137;-38
2022/05/05 08:48:31;;;;;;;4.93;2.83;;;;;;;;;;5050670;28;20032;-40
2022/05/05 08:51:00;;;;;;;3.08;2.78;;;;;;;;;;5050375;28;20036;-38
2022/05/05 08:53:35;;;;;;;2.92;2.72;;;;;;;;;;5049512;28;20056;-38
2022/05/05 08:56:03;;;;;;;3.50;3.20;;;;;;;;;;5320484;22;20007;-53
2022/05/05 08:58:29;;;;;;;4.53;2.65;;;;;;;;;;5073491;28;20036;-52
2022/05/05 09:00:55;;;;;;;3.15;2.55;;;;;;;;;;5073323;28;20119;-57
2022/05/05 09:03:21;;;;;;;3.40;2.50;;;;;;;;;;5073464;28;20115;-52
2022/05/05 09:05:48;;;;;;;3.42;2.80;;;;;;;;;;5073620;28;20088;-48
2022/05/05 09:08:26;;;;;;;2.45;2.25;;;;;;;;;;5073323;28;20032;-57
2022/05/05 09:10:54;;;;;;;4.80;2.05;;;;;;;;;;5073563;28;20029;-45
2022/05/05 09:13:25;;;;;;;3.45;2.83;;;;;;;;;;5073118;28;20028;-51
2022/05/05 09:15:51;;;;;;;2.42;2.22;;;;;;;;;;5073105;28;20573;-45
2022/05/05 09:18:17;;;;;;;2.78;1.83;;;;;;;;;;5073350;28;20032;-46
2022/05/05 09:20:45;;;;;;;2.97;2.42;;;;;;;;;;5073120;28;20029;-47
2022/05/05 09:23:28;;;;;;;2.50;2.30;;;;;;;;;;5073226;28;20056;-54
2022/05/05 09:25:53;;;;;;;6.78;2.80;;;;;;;;;;5072855;28;20025;-48
2022/05/05 09:28:24;;;;;;;2.95;1.95;;;;;;;;;;5073111;28;20031;-49
2022/05/05 09:30:52;;;;;;;5.70;2.35;;;;;;;;;;5072688;28;20028;-53
2022/05/05 09:33:37;;;;;;;2.88;2.67;;;;;;;;;;5073045;28;20542;-46
2022/05/05 09:36:07;;;;;;;1.75;1.65;;;;;;;;;;5072738;28;20028;-44
2022/05/05 09:38:47;;;;;;;3.90;2.70;;;;;;;;;;5072958;28;20028;-47
2022/05/05 09:41:13;;;;;;;2.75;2.30;;;;;;;;;;5072804;28;20379;-49
2022/05/05 09:43:39;;;;;;;5.60;2.42;;;;;;;;;;5072596;28;20034;-48
2022/05/05 09:46:22;;;;;;;3.53;2.60;;;;;;;;;;5072310;28;20031;-52
2022/05/05 09:48:50;;;;;;;2.47;2.28;;;;;;;;;;5072824;28;20036;-48
2022/05/05 09:51:16;;;;;;;3.50;2.53;;;;;;;;;;5072116;28;20430;-51
2022/05/05 09:59:29;;;;;;;2.70;2.50;;;;;;;;;;5072663;28;20117;-48
2022/05/05 10:02:01;;;;;;;2.55;2.35;;;;;;;;;;5072493;28;20405;-54
2022/05/05 10:04:30;;;;;;;2.60;2.40;;;;;;;;;;5072161;28;20060;-55
2022/05/05 10:06:56;;;;;;;3.03;2.35;;;;;;;;;;5072429;28;20625;-56
2022/05/05 10:09:23;;;;;;;2.97;2.65;;;;;;;;;;5072063;28;20467;-50
2022/05/05 10:11:49;;;;;;;2.28;2.08;;;;;;;;;;5072011;28;20120;-47
2022/05/05 10:14:18;;;;;;;2.80;2.60;;;;;;;;;;5072307;28;20036;-55
2022/05/05 10:16:44;;;;;;;2.20;2.00;;;;;;;;;;5071798;28;20146;-50
2022/05/05 10:19:10;;;;;;;3.70;2.60;;;;;;;;;;5072059;28;20035;-51
2022/05/05 10:21:52;;;;;;;2.90;1.80;;;;;;;;;;5072184;28;20032;-52
2022/05/05 10:24:28;;;;;;;3.72;2.45;;;;;;;;;;5071877;28;20471;-45
2022/05/05 10:26:55;;;;;;;2.80;2.60;;;;;;;;;;5071757;28;20063;-49
2022/05/05 10:29:42;;;;;;;2.13;1.98;;;;;;;;;;5071546;28;20028;-50
2022/05/05 10:32:34;;;;;;;2.63;2.00;;;;;;;;;;5071726;28;20544;-52
2022/05/05 10:35:11;;;;;;;3.13;2.83;;;;;;;;;;5050682;28;20036;-52
2022/05/05 10:37:38;;;;;;;4.95;2.90;;;;;;;;;;5071552;28;20491;-47
2022/05/05 10:40:08;;;;;;;3.55;2.78;;;;;;;;;;5071162;28;20079;-51
2022/05/05 10:42:50;;;;;;;3.15;2.60;;;;;;;;;;5071728;28;20033;-48
2022/05/05 10:45:17;;;;;;;7.20;3.85;;;;;;;;;;5071396;28;20206;-46
2022/05/05 10:47:58;;;;;;;4.45;3.25;;;;;;;;;;5071571;28;20425;-46
2022/05/05 10:50:54;;;;;;;3.42;3.00;;;;;;;;;;5071391;28;20098;-47
2022/05/05 10:53:33;;;;;;;3.40;3.10;;;;;;;;;;5071275;28;20032;-49
2022/05/05 10:56:02;;;;;;;3.53;3.05;;;;;;;;;;5071267;28;20070;-50
2022/05/05 10:59:04;;;;;;;3.13;2.65;;;;;;;;;;5070728;28;20052;-54
2022/05/05 11:01:50;;;;;;;4.05;2.80;;;;;;;;;;5051919;28;20047;-49
2022/05/05 11:04:15;;;;;;;3.05;2.58;;;;;;;;;;5070863;28;20037;-54
2022/05/05 11:06:48;;;;;;;3.45;2.60;;;;;;;;;;5071275;28;20039;-51
2022/05/05 11:09:34;;;;;;;3.10;2.80;;;;;;;;;;5071027;28;20033;-52
2022/05/05 11:12:19;;;;;;;3.10;2.80;;;;;;;;;;5070825;28;20047;-49
2022/05/05 11:23:50;;;;;;;3.03;2.72;;;;;;;;;;5070787;28;20032;-46
2022/05/05 11:26:20;;;;;;;8.05;2.88;;;;;;;;;;5070745;28;20078;-50
2022/05/05 11:28:47;;;;;;;3.45;2.60;;;;;;;;;;5070546;28;20025;-53
2022/05/05 11:31:32;;;;;;;2.53;2.28;;;;;;;;;;5070356;28;20626;-56
2022/05/05 11:34:03;;;;;;;7.20;2.80;;;;;;;;;;5069908;28;20125;-50
2022/05/05 11:36:34;;;;;;;2.83;2.50;;;;;;;;;;5070677;28;20040;-57
2022/05/05 11:38:59;;;;;;;2.70;2.50;;;;;;;;;;5070501;28;20047;-56
2022/05/05 11:41:25;;;;;;;3.08;2.63;;;;;;;;;;5070475;28;20468;-48
2022/05/05 11:46:36;;;;;;;5.88;2.83;;;;;;;;;;5070617;28;20039;-58
2022/05/05 11:49:02;;;;;;;5.80;2.90;;;;;;;;;;5070018;28;20506;-49
2022/05/05 11:51:33;;;;;;;3.05;2.75;;;;;;;;;;5070005;28;20024;-52
2022/05/05 11:54:06;;;;;;;3.17;2.50;;;;;;;;;;5070117;28;20096;-52
2022/05/05 11:56:32;;;;;;;3.63;2.60;;;;;;;;;;5069907;28;20047;-52
2022/05/05 12:02:11;;;;;;;5.72;2.92;;;;;;;;;;5070514;28;20047;-50
2022/05/05 12:04:49;;;;;;;3.00;2.65;;;;;;;;;;5069258;28;20455;-53
2022/05/05 12:07:20;;;;;;;5.65;3.65;;;;;;;;;;5069872;28;20039;-53
2022/05/05 12:09:49;;;;;;;4.80;3.00;;;;;;;;;;5070340;28;20025;-58
2022/05/05 12:12:29;;;;;;;8.17;3.00;;;;;;;;;;5070081;28;20043;-56
2022/05/05 12:15:00;;;;;;;5.72;2.97;;;;;;;;;;5069763;28;20764;-52
2022/05/05 12:17:34;;;;;;;8.98;3.83;;;;;;;;;;5070131;28;20021;-50
2022/05/05 12:20:03;;;;;;;5.55;4.15;;;;;;;;;;5069785;28;20036;-50
2022/05/05 12:22:30;;;;;;;15.82;4.50;;;;;;;;;;5070109;28;20379;-52
2022/05/05 12:25:17;;;;;;;7.20;5.07;;;;;;;;;;5070600;28;20039;-50
2022/05/05 12:28:06;;;;;;;4.55;3.72;;;;;;;;;;5069363;28;20039;-52
2022/05/05 12:30:39;;;;;;;3.78;2.55;;;;;;;;;;5061494;28;20040;-53
2022/05/05 12:33:10;;;;;;;2.53;2.33;;;;;;;;;;5070428;28;20040;-53
2022/05/05 12:35:40;;;;;;;1.75;1.65;;;;;;;;;;5071021;28;20016;-51
2022/05/05 12:38:08;;;;;;;4.20;2.78;;;;;;;;;;5070916;28;20472;-57
2022/05/05 12:40:35;;;;;;;3.40;3.10;;;;;;;;;;5070735;28;20056;-50
2022/05/05 12:43:02;;;;;;;2.55;1.60;;;;;;;;;;5070903;28;20109;-52
2022/05/05 12:45:31;;;;;;;4.57;2.50;;;;;;;;;;5070738;28;20498;-50
2022/05/05 12:48:00;;;;;;;2.67;2.42;;;;;;;;;;5071061;28;20375;-53
2022/05/05 12:50:29;;;;;;;2.90;2.60;;;;;;;;;;5070993;28;20029;-52
2022/05/05 13:01:07;;;;;;;4.53;3.13;;;;;;;;;;5031034;28;20056;-52
2022/05/05 13:03:34;;;;;;;3.20;2.90;;;;;;;;;;5030628;28;20465;-50
2022/05/05 13:06:00;;;;;;;4.90;3.17;;;;;;;;;;5030682;28;20036;-54
2022/05/05 13:08:25;;;;;;;3.88;3.00;;;;;;;;;;5030938;28;20037;-58
2022/05/05 13:10:51;;;;;;;3.95;3.50;;;;;;;;;;5030425;28;20029;-56
2022/05/05 13:13:16;;;;;;;2.75;2.40;;;;;;;;;;5030946;28;20034;-54
2022/05/05 13:15:42;;;;;;;4.30;3.70;;;;;;;;;;5030600;28;20434;-54
2022/05/05 13:18:08;;;;;;;3.55;2.80;;;;;;;;;;5030792;28;20037;-55
2022/05/05 13:20:34;;;;;;;4.63;3.30;;;;;;;;;;5030079;28;20389;-54
2022/05/05 13:23:00;;;;;;;6.90;3.30;;;;;;;;;;5030744;28;20025;-57
2022/05/05 13:25:27;;;;;;;4.07;3.67;;;;;;;;;;5029350;28;20105;-55
2022/05/05 13:27:53;;;;;;;4.38;2.88;;;;;;;;;;5030799;28;20029;-56
2022/05/05 13:30:18;;;;;;;7.70;3.58;;;;;;;;;;5030339;28;20395;-56
2022/05/05 13:32:44;;;;;;;3.40;2.90;;;;;;;;;;5029004;28;20060;-55
2022/05/05 13:35:10;;;;;;;3.40;3.10;;;;;;;;;;5030760;28;20028;-57
2022/05/05 13:37:37;;;;;;;3.13;2.88;;;;;;;;;;5030457;28;20040;-56
2022/05/05 13:40:07;;;;;;;5.47;3.00;;;;;;;;;;5032406;28;20116;-57
2022/05/05 13:42:35;;;;;;;4.45;3.17;;;;;;;;;;5034146;28;20034;-55
2022/05/05 13:45:01;;;;;;;2.85;2.65;;;;;;;;;;5033607;28;20044;-56
2022/05/05 13:47:26;;;;;;;5.88;3.20;;;;;;;;;;5034159;28;20041;-54
2022/05/05 13:49:52;;;;;;;3.33;2.90;;;;;;;;;;5034150;28;20477;-54
2022/05/05 13:52:17;;;;;;;4.03;3.10;;;;;;;;;;5033810;28;20022;-55
2022/05/05 13:54:44;;;;;;;3.40;3.05;;;;;;;;;;5034115;28;20025;-57
2022/05/05 13:57:09;;;;;;;4.40;2.60;;;;;;;;;;5056081;28;20052;-56
2022/05/05 13:59:36;;;;;;;6.22;2.42;;;;;;;;;;5073682;28;20071;-59
2022/05/05 14:02:02;;;;;;;5.50;2.80;;;;;;;;;;5073810;28;20028;-56
2022/05/05 14:04:28;;;;;;;4.32;3.00;;;;;;;;;;5073935;28;20039;-56
2022/05/05 14:06:56;;;;;;;3.00;2.80;;;;;;;;;;5073581;28;20387;-58
2022/05/05 14:12:12;;;;;;;2.70;2.33;;;;;;;;;;5073775;28;20112;-55
2022/05/05 14:14:39;;;;;;;3.67;2.70;;;;;;;;;;5073633;28;20039;-54
2022/05/05 14:17:05;;;;;;;3.78;2.60;;;;;;;;;;5073305;28;20476;-53
2022/05/05 14:19:31;;;;;;;2.38;2.10;;;;;;;;;;5073676;28;20029;-50
2022/05/05 14:21:58;;;;;;;2.25;2.08;;;;;;;;;;5073425;28;20029;-50
2022/05/05 14:24:24;;;;;;;2.30;2.10;;;;;;;;;;5073270;28;20123;-57
2022/05/05 14:26:49;;;;;;;2.55;1.95;;;;;;;;;;5073456;28;20535;-53
2022/05/05 14:29:15;;;;;;;2.65;2.45;;;;;;;;;;5073153;28;20059;-57
2022/05/05 14:31:40;;;;;;;2.50;1.98;;;;;;;;;;5072928;28;20027;-52
2022/05/05 14:34:06;;;;;;;3.17;2.60;;;;;;;;;;5073088;28;20028;-54
2022/05/05 14:36:32;;;;;;;2.92;2.33;;;;;;;;;;5073032;28;20063;-56
2022/05/05 14:38:59;;;;;;;2.63;2.20;;;;;;;;;;5072501;28;20460;-55
2022/05/05 14:41:25;;;;;;;3.10;2.25;;;;;;;;;;5073138;28;20068;-53
2022/05/05 14:43:51;;;;;;;4.57;2.75;;;;;;;;;;5072786;28;20064;-55
2022/05/05 14:46:16;;;;;;;3.00;2.13;;;;;;;;;;5072234;28;20574;-51
2022/05/05 14:48:42;;;;;;;1.70;1.60;;;;;;;;;;5071984;28;20115;-56
2022/05/05 14:51:08;;;;;;;4.38;1.80;;;;;;;;;;5072373;28;20123;-52
2022/05/05 14:53:34;;;;;;;3.80;2.30;;;;;;;;;;5072673;28;20050;-54
2022/05/05 14:55:59;;;;;;;8.65;2.13;;;;;;;;;;5072309;28;20471;-55
2022/05/05 14:58:25;;;;;;;7.25;1.92;;;;;;;;;;5072936;28;20031;-55
2022/05/05 15:00:50;;;;;;;2.75;1.90;;;;;;;;;;5072534;28;20031;-52
2022/05/05 15:03:16;;;;;;;3.53;2.15;;;;;;;;;;5072770;28;20459;-56
2022/05/05 15:05:41;;;;;;;2.33;2.13;;;;;;;;;;5054266;28;20365;-55
2022/05/05 15:08:07;;;;;;;2.20;2.00;;;;;;;;;;5072626;28;20028;-52
2022/05/05 15:10:33;;;;;;;6.00;4.25;;;;;;;;;;5072427;28;20028;-50
2022/05/05 15:12:59;;;;;;;2.67;1.65;;;;;;;;;;5072233;28;20515;-53
2022/05/05 15:15:24;;;;;;;1.73;1.35;;;;;;;;;;5072238;28;20024;-53
2022/05/05 15:17:52;;;;;;;1.85;1.75;;;;;;;;;;5071976;28;20032;-56
2022/05/05 15:20:17;;;;;;;1.95;1.83;;;;;;;;;;5072322;28;20033;-57
2022/05/05 15:22:42;;;;;;;5.63;2.00;;;;;;;;;;5072287;28;20023;-61
2022/05/05 15:25:10;;;;;;;1.58;1.48;;;;;;;;;;5071977;28;20082;-53
2022/05/05 15:27:38;;;;;;;1.52;1.42;;;;;;;;;;5071936;28;20158;-48
2022/05/05 15:30:04;;;;;;;1.70;1.60;;;;;;;;;;5053984;28;20117;-57
2022/05/05 15:32:30;;;;;;;4.18;1.98;;;;;;;;;;5070201;28;20025;-52
2022/05/05 15:34:57;;;;;;;2.17;1.98;;;;;;;;;;5070942;28;20479;-49
2022/05/05 15:37:24;;;;;;;2.90;1.92;;;;;;;;;;5071773;28;20502;-50